Time;durP1;ratioP1;P1;durP2;ratioP2;P2;SDS_P1;SDS_P2;PMS_P1;PMS_P2;Temp;Humidity;BMP_temperature;BMP_pressure;BME280_temperature;BME280_humidity;BME280_pressure;Samples;Min_cycle;Max_cycle;Signal;HPM_P1;HPM_P2
2021/12/21 00:01:37;;;;;;;13.00;6.90;;;;;;;0.53;88.54;94876.81;5092849;28;20624;-77
2021/12/21 00:04:06;;;;;;;10.33;6.47;;;;;;;0.45;87.52;94870.84;5091449;28;20243;-77
2021/12/21 00:06:34;;;;;;;12.50;6.90;;;;;;;0.53;87.46;94891.34;5091693;28;20204;-76
2021/12/21 00:09:04;;;;;;;12.73;7.33;;;;;;;0.53;87.89;94883.66;5092352;28;20205;-76
2021/12/21 00:11:33;;;;;;;12.17;6.57;;;;;;;0.58;87.95;94892.47;5092253;28;20591;-77
2021/12/21 00:14:16;;;;;;;13.00;6.37;;;;;;;0.57;87.76;94887.53;5085670;28;20202;-77
2021/12/21 00:17:13;;;;;;;10.70;5.67;;;;;;;0.47;88.26;94895.31;5085894;28;20218;-75
2021/12/21 00:19:53;;;;;;;8.53;5.40;;;;;;;0.50;88.68;94889.09;5091456;28;20262;-75
2021/12/21 00:25:05;;;;;;;6.13;4.23;;;;;;;0.32;89.59;94904.47;5067873;28;20240;-75
2021/12/21 00:27:34;;;;;;;10.90;5.43;;;;;;;0.43;89.99;94906.00;5091457;28;20204;-75
2021/12/21 00:30:01;;;;;;;11.00;5.03;;;;;;;0.48;88.81;94899.47;5091741;28;20201;-75
2021/12/21 00:32:30;;;;;;;6.10;4.67;;;;;;;0.54;89.04;94910.84;5091860;28;20216;-74
2021/12/21 00:34:58;;;;;;;11.43;5.50;;;;;;;0.52;88.53;94905.06;5090982;28;20719;-75
2021/12/21 00:37:28;;;;;;;13.40;5.40;;;;;;;0.55;89.02;94907.31;5091115;28;20565;-76
2021/12/21 00:39:56;;;;;;;11.37;5.30;;;;;;;0.52;89.24;94897.38;5090241;28;20239;-75
2021/12/21 00:42:26;;;;;;;10.27;5.33;;;;;;;0.58;88.90;94910.38;5091333;28;20208;-75
2021/12/21 00:44:54;;;;;;;11.10;5.50;;;;;;;0.36;89.49;94908.34;5090975;28;20294;-75
2021/12/21 00:47:22;;;;;;;9.73;5.57;;;;;;;0.38;89.64;94926.06;5088087;28;20254;-75
2021/12/21 00:49:58;;;;;;;7.53;5.07;;;;;;;0.40;89.77;94916.50;5091319;28;20336;-75
2021/12/21 00:52:28;;;;;;;11.83;5.30;;;;;;;0.50;89.75;94917.19;5091474;28;20220;-75
2021/12/21 00:54:56;;;;;;;6.63;4.70;;;;;;;0.35;90.58;94931.47;5090711;28;20207;-75
2021/12/21 00:57:26;;;;;;;6.87;4.77;;;;;;;0.24;90.59;94913.81;5090750;28;20245;-75
2021/12/21 00:59:55;;;;;;;7.27;5.20;;;;;;;0.25;90.44;94918.00;5090287;28;20225;-76
2021/12/21 01:02:24;;;;;;;9.90;4.83;;;;;;;0.02;91.87;94917.66;5091132;28;20200;-74
2021/12/21 01:04:55;;;;;;;7.40;4.87;;;;;;;0.02;90.84;94919.41;5090472;28;20205;-75
2021/12/21 01:07:29;;;;;;;7.20;5.07;;;;;;;-0.03;91.27;94923.19;5090241;28;20262;-76
2021/12/21 01:10:25;;;;;;;6.77;4.53;;;;;;;-0.11;90.73;94912.91;5090759;28;20200;-76
2021/12/21 01:12:59;;;;;;;7.57;4.67;;;;;;;-0.21;90.94;94901.97;5086325;28;20307;-76
2021/12/21 01:15:45;;;;;;;7.70;4.53;;;;;;;-0.11;90.67;94917.22;5090370;28;20207;-75
2021/12/21 01:18:16;;;;;;;7.70;4.87;;;;;;;-0.08;90.15;94915.16;5091251;28;20208;-76
2021/12/21 01:20:51;;;;;;;9.00;5.43;;;;;;;0.02;90.82;94924.50;5090896;28;20291;-76
2021/12/21 01:23:51;;;;;;;9.77;5.77;;;;;;;0.06;91.50;94920.72;5090726;28;20215;-75
2021/12/21 01:26:26;;;;;;;8.77;5.50;;;;;;;0.05;91.18;94919.13;5090387;28;20235;-75
2021/12/21 01:29:04;;;;;;;10.70;5.93;;;;;;;0.10;92.27;94917.72;5089897;28;20282;-75
2021/12/21 01:31:34;;;;;;;11.20;6.07;;;;;;;-0.01;90.38;94905.19;5090620;28;20683;-75
2021/12/21 01:34:17;;;;;;;10.80;6.50;;;;;;;-0.03;91.27;94914.75;5091017;28;20215;-76
2021/12/21 01:36:50;;;;;;;10.67;6.17;;;;;;;0.13;90.60;94924.28;5091241;28;20295;-77
2021/12/21 01:39:47;;;;;;;12.50;6.83;;;;;;;0.13;90.00;94937.84;5090281;28;20208;-74
2021/12/21 01:42:19;;;;;;;10.40;5.70;;;;;;;0.15;89.87;94930.84;5089341;28;20286;-75
2021/12/21 01:50:29;;;;;;;7.80;4.80;;;;;;;-0.06;87.28;94928.59;5015807;28;20293;-75
2021/12/21 01:52:56;;;;;;;5.23;3.90;;;;;;;-0.16;87.83;94930.44;5069152;28;20221;-76
2021/12/21 01:55:25;;;;;;;7.43;5.20;;;;;;;-0.19;88.43;94924.81;5090338;28;20694;-74
2021/12/21 01:57:54;;;;;;;8.50;5.53;;;;;;;-0.19;87.88;94923.06;5089484;28;20223;-75
2021/12/21 02:00:27;;;;;;;9.10;5.73;;;;;;;-0.13;87.74;94914.00;5089690;28;20250;-76
2021/12/21 02:02:55;;;;;;;12.60;6.30;;;;;;;-0.10;87.99;94929.84;5089983;28;20232;-75
2021/12/21 02:05:23;;;;;;;9.70;5.73;;;;;;;-0.09;86.73;94923.00;5090459;28;20647;-75
2021/12/21 02:07:51;;;;;;;8.90;5.77;;;;;;;-0.13;86.71;94927.59;5090638;28;20202;-75
2021/12/21 02:10:19;;;;;;;7.80;5.70;;;;;;;-0.13;86.51;94921.66;5089545;28;20647;-75
2021/12/21 02:12:48;;;;;;;12.60;6.70;;;;;;;-0.10;87.29;94924.75;5089702;28;20229;-76
2021/12/21 02:15:18;;;;;;;9.00;5.60;;;;;;;-0.10;86.49;94929.03;5090120;28;20231;-75
2021/12/21 02:20:42;;;;;;;6.97;4.37;;;;;;;-0.20;84.91;94916.34;5087491;28;20268;-76
2021/12/21 02:23:14;;;;;;;7.50;5.27;;;;;;;-0.24;85.62;94932.09;5089295;28;20209;-75
2021/12/21 02:26:04;;;;;;;8.57;4.90;;;;;;;-0.21;86.23;94926.72;5089141;28;20240;-75
2021/12/21 02:31:31;;;;;;;9.40;4.53;;;;;;;-0.39;85.92;94931.00;5046331;28;20210;-76
2021/12/21 02:34:00;;;;;;;5.50;4.00;;;;;;;-0.51;86.28;94921.94;5079763;28;20703;-76
2021/12/21 02:36:30;;;;;;;5.10;3.50;;;;;;;-0.54;86.28;94924.78;5090229;28;20262;-76
2021/12/21 02:38:58;;;;;;;8.73;5.93;;;;;;;-0.53;86.23;94928.94;5089453;28;20215;-76
2021/12/21 02:41:27;;;;;;;7.60;4.10;;;;;;;-0.51;85.80;94929.59;5088920;28;20609;-75
2021/12/21 02:43:56;;;;;;;12.97;5.60;;;;;;;-0.55;86.06;94923.19;5089390;28;20208;-76
2021/12/21 02:46:25;;;;;;;13.87;6.83;;;;;;;-0.59;85.98;94926.03;5090283;28;20207;-76
2021/12/21 02:48:53;;;;;;;12.20;5.97;;;;;;;-0.68;86.93;94929.44;5089318;28;20952;-75
2021/12/21 02:51:21;;;;;;;9.07;4.80;;;;;;;-0.71;87.30;94926.34;5089113;28;20242;-75
2021/12/21 02:53:52;;;;;;;9.47;4.70;;;;;;;-0.71;87.16;94914.41;5088979;28;20215;-75
2021/12/21 02:56:20;;;;;;;6.40;3.90;;;;;;;-0.58;87.23;94931.94;5088413;28;20238;-75
2021/12/21 02:58:48;;;;;;;6.70;4.00;;;;;;;-0.49;86.48;94932.81;5088946;28;20232;-75
2021/12/21 03:01:16;;;;;;;7.57;4.27;;;;;;;-0.46;86.68;94940.19;5088788;28;20209;-75
2021/12/21 03:03:44;;;;;;;6.37;4.43;;;;;;;-0.49;86.94;94933.59;5088614;28;20631;-74
2021/12/21 03:06:36;;;;;;;7.60;4.20;;;;;;;-0.53;87.57;94936.59;5088699;28;20204;-75
2021/12/21 03:09:14;;;;;;;8.53;4.00;;;;;;;-0.63;87.62;94934.91;5087719;28;20257;-75
2021/12/21 03:11:56;;;;;;;7.13;4.30;;;;;;;-0.68;87.90;94937.09;5083768;28;20200;-74
2021/12/21 03:14:25;;;;;;;10.37;5.20;;;;;;;-0.75;87.96;94950.56;5088150;28;20223;-74
2021/12/21 03:16:53;;;;;;;15.07;6.37;;;;;;;-0.66;87.74;94949.69;5088881;28;20678;-74
2021/12/21 03:19:24;;;;;;;13.13;6.23;;;;;;;-0.57;87.54;94941.16;5088785;28;20207;-74
2021/12/21 03:21:53;;;;;;;13.87;6.47;;;;;;;-0.67;88.11;94948.91;5088564;28;20960;-75
2021/12/21 03:24:23;;;;;;;15.13;6.93;;;;;;;-0.66;88.84;94934.38;5089082;28;20200;-74
2021/12/21 03:26:53;;;;;;;13.60;6.80;;;;;;;-0.67;89.37;94937.88;5088333;28;20205;-75
2021/12/21 03:29:21;;;;;;;13.03;7.20;;;;;;;-0.59;89.27;94943.88;5088423;28;20216;-74
2021/12/21 03:31:49;;;;;;;10.57;6.27;;;;;;;-0.56;89.14;94937.69;5081676;28;20787;-75
2021/12/21 03:34:17;;;;;;;12.20;6.70;;;;;;;-0.51;88.45;94940.59;5095123;28;20308;-75
2021/12/21 03:36:46;;;;;;;9.47;6.13;;;;;;;-0.50;88.39;94944.78;5088210;28;20721;-75
2021/12/21 03:39:18;;;;;;;9.07;5.27;;;;;;;-0.42;87.23;94949.16;5087163;28;20205;-75
2021/12/21 03:41:53;;;;;;;9.53;5.53;;;;;;;-0.46;86.27;94945.28;5088227;28;20254;-74
2021/12/21 03:44:23;;;;;;;11.20;6.07;;;;;;;-0.49;86.24;94937.91;5088411;28;20215;-75
2021/12/21 03:46:54;;;;;;;10.13;5.10;;;;;;;-0.37;85.72;94963.09;5088784;28;20204;-74
2021/12/21 03:52:14;;;;;;;10.03;5.27;;;;;;;-0.47;85.84;94964.91;5094686;28;20207;-76
2021/12/21 03:54:44;;;;;;;9.47;5.63;;;;;;;-0.63;86.76;94957.06;5088444;28;20691;-75
2021/12/21 03:57:14;;;;;;;7.07;4.73;;;;;;;-0.73;87.59;94964.78;5088595;28;20212;-74
2021/12/21 03:59:42;;;;;;;10.40;6.60;;;;;;;-0.57;87.71;94966.69;5088862;28;20201;-75
2021/12/21 04:02:12;;;;;;;10.63;6.27;;;;;;;-0.45;86.67;94975.75;5088799;28;20603;-72
2021/12/21 04:04:42;;;;;;;11.83;5.73;;;;;;;-0.36;85.72;94974.09;5088037;28;20278;-75
2021/12/21 04:07:11;;;;;;;9.57;5.70;;;;;;;-0.38;85.63;94981.09;5087947;28;20205;-70
2021/12/21 04:09:39;;;;;;;11.30;5.57;;;;;;;-0.55;85.64;94972.47;5088135;28;20201;-71
2021/12/21 04:12:09;;;;;;;13.60;6.50;;;;;;;-0.56;85.65;94983.63;5088704;28;20197;-71
2021/12/21 04:14:39;;;;;;;12.23;7.13;;;;;;;-0.52;85.69;94982.41;5091414;28;20266;-71
2021/12/21 04:17:08;;;;;;;11.13;6.63;;;;;;;-0.50;85.29;94984.78;5091837;28;20196;-71
2021/12/21 04:19:36;;;;;;;9.43;5.13;;;;;;;-0.42;84.11;94988.25;5092361;28;20200;-70
2021/12/21 04:22:05;;;;;;;11.30;5.80;;;;;;;-0.55;84.99;94986.97;5092094;28;20203;-70
2021/12/21 04:24:33;;;;;;;10.73;6.23;;;;;;;-0.51;85.04;94993.38;5092198;28;20233;-71
2021/12/21 04:27:02;;;;;;;8.03;5.03;;;;;;;-0.59;85.59;94999.22;5091474;28;20212;-71
2021/12/21 04:29:32;;;;;;;7.40;4.67;;;;;;;-0.45;84.66;94980.06;5086341;28;20305;-70
2021/12/21 04:32:02;;;;;;;10.23;5.60;;;;;;;-0.55;84.68;94976.78;5087926;28;20207;-70
2021/12/21 04:34:31;;;;;;;8.43;5.30;;;;;;;-0.63;85.10;94985.94;5088571;28;20281;-71
2021/12/21 04:36:58;;;;;;;9.63;5.93;;;;;;;-0.47;84.81;94992.97;5090588;28;20288;-71
2021/12/21 04:39:34;;;;;;;14.83;7.33;;;;;;;-0.33;84.01;94996.78;5090285;28;20208;-71
2021/12/21 04:42:02;;;;;;;12.33;6.83;;;;;;;-0.28;83.60;94987.75;5091319;28;20285;-71
2021/12/21 04:44:30;;;;;;;16.57;7.13;;;;;;;-0.21;82.38;94988.78;5091535;28;20282;-71
2021/12/21 04:46:58;;;;;;;11.73;6.37;;;;;;;-0.42;83.23;94997.63;5091558;28;20208;-71
2021/12/21 04:49:28;;;;;;;8.13;4.93;;;;;;;-0.54;83.52;94999.59;5091550;28;20611;-71
2021/12/21 04:51:55;;;;;;;10.13;6.33;;;;;;;-0.48;83.78;94993.91;5090847;28;20197;-71
2021/12/21 04:54:23;;;;;;;10.63;6.43;;;;;;;-0.42;83.07;95002.75;5090542;28;20220;-70
2021/12/21 04:56:51;;;;;;;9.53;6.13;;;;;;;-0.36;81.94;94999.63;5090699;28;20212;-72
2021/12/21 04:59:20;;;;;;;9.90;5.10;;;;;;;-0.47;81.47;95005.75;5091108;28;20203;-70
2021/12/21 05:01:49;;;;;;;10.37;6.10;;;;;;;-0.51;82.26;95013.81;5088605;28;20200;-71
2021/12/21 05:04:17;;;;;;;14.57;7.30;;;;;;;-0.51;82.26;95008.69;5084849;28;20201;-71
2021/12/21 05:06:46;;;;;;;11.57;7.00;;;;;;;-0.67;83.03;95015.25;5090663;28;20196;-75
2021/12/21 05:09:24;;;;;;;15.70;7.77;;;;;;;-0.54;82.49;95016.63;5092735;28;20197;-91
2021/12/21 05:11:56;;;;;;;14.80;7.77;;;;;;;-0.51;82.84;95018.91;5093819;28;20208;-76
2021/12/21 05:14:23;;;;;;;15.80;8.50;;;;;;;-0.64;83.09;95019.25;5095379;28;20236;-77
2021/12/21 05:16:51;;;;;;;16.07;8.50;;;;;;;-0.55;83.30;95025.25;5095566;28;20193;-76
2021/12/21 05:19:19;;;;;;;16.40;9.77;;;;;;;-0.55;83.22;95022.69;5091508;28;20655;-77
2021/12/21 05:21:48;;;;;;;14.67;8.43;;;;;;;-0.57;83.29;95026.19;5092913;28;20200;-77
2021/12/21 05:24:17;;;;;;;16.40;8.63;;;;;;;-0.55;83.78;95030.34;5089480;28;20193;-77
2021/12/21 05:26:45;;;;;;;13.43;7.07;;;;;;;-0.71;83.77;95023.28;5092160;28;20217;-78
2021/12/21 05:29:14;;;;;;;13.70;6.60;;;;;;;-0.88;84.96;95026.56;5094518;28;20253;-78
2021/12/21 05:31:42;;;;;;;16.90;7.53;;;;;;;-0.79;85.03;95021.44;5094855;28;20237;-80
2021/12/21 05:34:09;;;;;;;25.60;12.10;;;;;;;-0.90;85.21;95000.41;5093748;28;20312;-80
2021/12/21 05:36:38;;;;;;;27.77;14.07;;;;;;;-0.85;85.87;95009.25;5089535;28;20188;-74
2021/12/21 05:39:17;;;;;;;29.67;14.00;;;;;;;-0.79;85.81;95013.00;5087582;28;20333;-74
2021/12/21 05:41:50;;;;;;;23.07;12.73;;;;;;;-0.69;85.43;95021.41;5091059;28;20246;-75
2021/12/21 05:44:19;;;;;;;24.50;11.37;;;;;;;-0.71;85.56;95030.94;5085937;28;20201;-76
2021/12/21 05:46:49;;;;;;;18.57;9.93;;;;;;;-0.76;86.05;95025.47;5090349;28;20266;-75
2021/12/21 05:49:19;;;;;;;20.90;9.07;;;;;;;-0.78;86.66;95040.13;5092691;28;20204;-75
2021/12/21 05:51:50;;;;;;;16.80;7.83;;;;;;;-0.83;87.13;95039.72;5090244;28;20204;-80
2021/12/21 05:54:21;;;;;;;11.70;6.07;;;;;;;-0.81;87.17;95030.97;5092376;28;20673;-80
2021/12/21 05:56:50;;;;;;;11.27;6.67;;;;;;;-0.82;88.08;95043.88;5092524;28;20668;-76
2021/12/21 05:59:17;;;;;;;14.60;7.27;;;;;;;-0.78;88.43;95047.78;5087232;28;20321;-81
2021/12/21 06:01:46;;;;;;;17.60;8.90;;;;;;;-0.79;88.14;95054.63;5091280;28;20275;-76
2021/12/21 06:04:14;;;;;;;16.73;8.07;;;;;;;-0.96;89.78;95044.31;5089494;28;20193;-80
2021/12/21 06:07:00;;;;;;;10.67;6.63;;;;;;;-1.05;90.49;95050.25;5091155;28;20276;-76
2021/12/21 06:09:33;;;;;;;16.93;8.17;;;;;;;-1.06;90.30;95049.44;5088153;28;20202;-77
2021/12/21 06:12:10;;;;;;;18.13;9.73;;;;;;;-0.90;90.03;95057.34;5087259;28;20200;-75
2021/12/21 06:23:26;;;;;;;13.60;7.63;;;;;;;-0.92;90.93;95071.94;5092333;28;20191;-75
2021/12/21 06:25:57;;;;;;;19.80;9.60;;;;;;;-1.14;91.44;95062.06;5091931;28;20297;-75
2021/12/21 06:28:27;;;;;;;11.73;7.00;;;;;;;-0.90;91.63;95093.03;5098589;28;20208;-76
2021/12/21 06:30:58;;;;;;;26.50;12.47;;;;;;;-0.84;91.78;95110.34;5095358;28;20196;-76
2021/12/21 06:33:27;;;;;;;19.00;8.53;;;;;;;-0.79;90.34;95112.47;5092295;28;20267;-75
2021/12/21 06:35:56;;;;;;;15.73;8.37;;;;;;;-0.71;89.61;95110.84;5097194;28;20568;-76
2021/12/21 06:38:24;;;;;;;20.37;9.53;;;;;;;-0.82;90.67;95116.09;5103091;28;20247;-76
2021/12/21 06:40:55;;;;;;;26.53;12.30;;;;;;;-0.80;90.97;95114.22;5092657;28;21035;-76
2021/12/21 06:43:25;;;;;;;21.77;11.20;;;;;;;-0.69;91.19;95116.59;5101222;28;20697;-76
2021/12/21 06:46:00;;;;;;;26.30;11.67;;;;;;;-0.64;91.26;95114.47;5096459;28;20212;-76
2021/12/21 06:51:19;;;;;;;27.83;12.23;;;;;;;-0.62;91.28;95132.97;5096988;28;20207;-75
2021/12/21 06:53:49;;;;;;;24.70;12.43;;;;;;;-0.61;91.12;95128.69;5096295;28;20654;-75
2021/12/21 06:56:19;;;;;;;22.33;13.00;;;;;;;-0.62;90.52;95125.31;5096064;28;20278;-75
2021/12/21 06:58:47;;;;;;;21.20;10.60;;;;;;;-0.60;90.62;95133.63;5094422;28;20196;-76
2021/12/21 07:01:19;;;;;;;28.03;11.10;;;;;;;-0.64;91.02;95132.31;5095302;28;20262;-76
2021/12/21 07:03:47;;;;;;;21.33;9.97;;;;;;;-0.59;90.21;95149.75;5100320;28;20599;-76
2021/12/21 07:06:18;;;;;;;24.33;10.17;;;;;;;-0.69;89.60;95126.00;5092084;28;21131;-75
2021/12/21 07:08:52;;;;;;;17.17;7.70;;;;;;;-0.61;89.73;95147.34;5086012;28;20192;-76
2021/12/21 07:11:28;;;;;;;12.93;6.93;;;;;;;-0.67;89.20;95131.78;5091935;28;20196;-76
2021/12/21 07:19:27;;;;;;;21.43;9.93;;;;;;;-0.73;90.28;95137.44;5088540;28;20207;-76
2021/12/21 07:21:55;;;;;;;15.93;8.40;;;;;;;-0.78;89.92;95139.59;5086366;28;20201;-76
2021/12/21 07:24:24;;;;;;;18.53;9.60;;;;;;;-0.83;90.05;95140.00;5088223;28;20280;-76
2021/12/21 07:26:54;;;;;;;13.70;7.03;;;;;;;-0.72;88.45;95146.69;5087842;28;20201;-75
2021/12/21 07:29:21;;;;;;;10.20;4.57;;;;;;;-0.74;88.09;95153.69;5088394;28;20204;-76
2021/12/21 07:31:50;;;;;;;14.80;7.70;;;;;;;-0.63;87.77;95148.41;5088685;28;20285;-76
2021/12/21 07:34:18;;;;;;;12.73;7.40;;;;;;;-0.62;87.53;95155.13;5088190;28;20220;-76
2021/12/21 07:36:46;;;;;;;16.43;7.57;;;;;;;-0.51;86.64;95164.38;5088574;28;20201;-75
2021/12/21 07:39:17;;;;;;;16.77;8.73;;;;;;;-0.47;86.81;95158.06;5087968;28;20216;-72
2021/12/21 07:41:47;;;;;;;21.03;9.13;;;;;;;-0.43;86.56;95162.72;5088619;28;20211;-75
2021/12/21 07:44:17;;;;;;;4.83;3.60;;;;;;;-0.41;86.34;95170.28;5089026;28;20205;-75
2021/12/21 07:46:47;;;;;;;7.20;4.37;;;;;;;-0.41;86.40;95155.78;5090070;28;20265;-75
2021/12/21 07:49:16;;;;;;;10.13;6.63;;;;;;;-0.34;86.64;95159.34;5091082;28;20204;-75
2021/12/21 07:51:44;;;;;;;11.27;6.00;;;;;;;-0.35;86.40;95156.97;5091910;28;20262;-75
2021/12/21 07:54:12;;;;;;;7.67;4.90;;;;;;;-0.30;87.31;95159.88;5092021;28;20221;-76
2021/12/21 07:56:40;;;;;;;9.57;5.27;;;;;;;-0.27;87.02;95157.88;5092282;28;20199;-76
2021/12/21 07:59:08;;;;;;;12.27;6.97;;;;;;;-0.21;87.21;95156.50;5092114;28;20588;-76
2021/12/21 08:01:38;;;;;;;7.93;4.80;;;;;;;-0.21;86.27;95167.53;5091852;28;20664;-75
2021/12/21 08:04:07;;;;;;;8.63;4.93;;;;;;;-0.22;86.26;95180.41;5091716;28;20200;-76
2021/12/21 08:06:36;;;;;;;4.97;3.93;;;;;;;-0.13;86.01;95175.28;5092178;28;20236;-75
2021/12/21 08:09:05;;;;;;;11.63;5.23;;;;;;;-0.14;85.92;95186.44;5084488;28;20672;-75
2021/12/21 08:14:17;;;;;;;6.73;4.77;;;;;;;-0.21;85.46;95189.69;5092588;28;20286;-76
2021/12/21 08:16:46;;;;;;;13.83;6.93;;;;;;;-0.20;86.25;95189.53;5093445;28;20232;-76
2021/12/21 08:19:14;;;;;;;8.67;5.60;;;;;;;-0.10;85.39;95181.88;5092594;28;20209;-75
2021/12/21 08:21:42;;;;;;;11.70;6.00;;;;;;;-0.11;85.37;95191.25;5092157;28;20694;-76
2021/12/21 08:24:11;;;;;;;11.83;6.50;;;;;;;-0.08;85.10;95196.09;5091234;28;20253;-76
2021/12/21 08:26:38;;;;;;;11.07;6.73;;;;;;;-0.04;85.30;95206.84;5090828;28;20236;-75
2021/12/21 08:29:06;;;;;;;6.13;4.00;;;;;;;-0.12;83.28;95197.34;5091847;28;20305;-76
2021/12/21 08:31:34;;;;;;;12.80;4.83;;;;;;;-0.10;82.86;95208.22;5092632;28;20287;-76
2021/12/21 08:34:03;;;;;;;15.63;5.83;;;;;;;-0.06;83.07;95203.63;5091270;28;20324;-76
2021/12/21 08:36:31;;;;;;;13.20;7.07;;;;;;;0.04;83.54;95213.78;5091348;28;20212;-76
2021/12/21 08:38:59;;;;;;;15.57;8.43;;;;;;;0.08;83.41;95210.84;5091096;28;20265;-76
2021/12/21 08:41:27;;;;;;;12.87;6.90;;;;;;;0.14;82.87;95217.13;5092203;28;20212;-76
2021/12/21 08:43:54;;;;;;;12.93;6.70;;;;;;;0.13;81.79;95225.72;5090844;28;20262;-75
2021/12/21 08:46:22;;;;;;;7.80;5.27;;;;;;;0.18;81.72;95215.88;5091401;28;20578;-76
2021/12/21 08:48:49;;;;;;;8.30;4.33;;;;;;;0.29;81.01;95213.97;5088989;28;20212;-76
2021/12/21 08:51:18;;;;;;;10.67;5.37;;;;;;;0.43;79.40;95228.03;5092641;28;20247;-76
2021/12/21 08:53:47;;;;;;;9.53;5.47;;;;;;;0.58;78.30;95227.41;5088930;28;20267;-75
2021/12/21 08:56:16;;;;;;;7.23;4.50;;;;;;;0.67;76.16;95238.53;5088290;28;20271;-76
2021/12/21 08:58:44;;;;;;;9.20;4.97;;;;;;;0.70;75.78;95233.13;5091377;28;20208;-75
2021/12/21 09:01:12;;;;;;;13.27;6.17;;;;;;;0.30;76.31;95174.69;5089455;28;20215;-75
2021/12/21 09:03:42;;;;;;;11.23;6.30;;;;;;;0.50;76.75;95244.41;5091231;28;20201;-75
2021/12/21 09:06:10;;;;;;;8.80;3.60;;;;;;;0.40;76.20;95236.81;5091602;28;20315;-76
2021/12/21 09:08:39;;;;;;;5.17;3.60;;;;;;;0.24;76.45;95233.22;5090014;28;20227;-76
2021/12/21 09:11:08;;;;;;;5.47;3.63;;;;;;;0.28;76.13;95232.00;5090681;28;20205;-73
2021/12/21 09:13:36;;;;;;;8.80;4.83;;;;;;;0.45;76.15;95218.47;5090639;28;20310;-74
2021/12/21 09:16:04;;;;;;;6.43;3.50;;;;;;;0.49;74.55;95224.91;5090629;28;20243;-74
2021/12/21 09:18:31;;;;;;;7.33;4.10;;;;;;;0.57;74.45;95228.38;5089662;28;20209;-74
2021/12/21 09:20:59;;;;;;;6.27;3.83;;;;;;;0.46;74.47;95233.66;5090022;28;20204;-75
2021/12/21 09:23:28;;;;;;;5.83;3.47;;;;;;;0.40;75.39;95229.13;5090552;28;20301;-77
2021/12/21 09:25:57;;;;;;;6.50;3.90;;;;;;;0.50;75.00;95229.88;5083359;28;20229;-75
2021/12/21 09:28:25;;;;;;;6.27;3.73;;;;;;;0.60;74.27;95237.50;5091648;28;20196;-81
2021/12/21 09:30:54;;;;;;;7.60;4.77;;;;;;;0.62;74.29;95240.72;5090815;28;20224;-76
2021/12/21 09:33:21;;;;;;;7.10;4.40;;;;;;;0.74;75.06;95218.31;5088826;28;20859;-75
2021/12/21 09:35:52;;;;;;;6.07;3.53;;;;;;;0.93;75.93;95241.19;5089317;28;20331;-76
2021/12/21 09:38:20;;;;;;;6.63;3.90;;;;;;;0.94;75.63;95241.06;5090312;28;20193;-74
2021/12/21 09:40:47;;;;;;;9.93;4.30;;;;;;;0.95;75.32;95242.66;5090653;28;20207;-75
2021/12/21 09:43:17;;;;;;;10.37;5.00;;;;;;;0.84;76.44;95247.16;5090895;28;20235;-76
2021/12/21 09:45:44;;;;;;;12.60;5.30;;;;;;;0.76;76.68;95241.97;5089972;28;20201;-74
2021/12/21 09:48:11;;;;;;;7.50;4.87;;;;;;;0.57;78.68;95240.34;5091015;28;20205;-74
2021/12/21 09:50:42;;;;;;;9.73;4.20;;;;;;;0.50;78.09;95240.09;5091208;28;20223;-75
2021/12/21 09:53:10;;;;;;;6.13;3.70;;;;;;;0.22;77.74;95235.13;5089798;28;20204;-75
2021/12/21 09:55:38;;;;;;;8.90;5.70;;;;;;;0.83;77.96;95227.69;5090139;28;20232;-75
2021/12/21 09:58:07;;;;;;;13.87;6.63;;;;;;;2.73;73.04;95239.53;5089792;28;20201;-75
2021/12/21 10:00:36;;;;;;;9.17;6.10;;;;;;;4.55;66.30;95245.97;5090780;28;20216;-76
2021/12/21 10:03:06;;;;;;;12.20;5.90;;;;;;;5.91;59.98;95251.28;5084321;28;20207;-76
2021/12/21 10:05:37;;;;;;;7.90;4.87;;;;;;;6.04;57.59;95233.41;5089333;28;20214;-75
2021/12/21 10:08:09;;;;;;;9.73;5.30;;;;;;;7.16;51.92;95227.94;5089278;28;20240;-76
2021/12/21 10:10:39;;;;;;;9.27;4.83;;;;;;;8.57;48.14;95225.34;5089679;28;20216;-75
2021/12/21 10:13:12;;;;;;;9.33;4.73;;;;;;;9.99;44.01;95225.91;5086281;28;20193;-76
2021/12/21 10:15:45;;;;;;;8.27;3.80;;;;;;;10.09;41.40;95205.56;5086793;28;20222;-74
2021/12/21 10:18:13;;;;;;;4.27;2.73;;;;;;;9.42;42.45;95215.28;5086455;28;20202;-76
2021/12/21 10:20:43;;;;;;;8.67;5.50;;;;;;;7.64;44.09;95204.94;5089240;28;20201;-76
2021/12/21 10:23:16;;;;;;;7.50;4.70;;;;;;;5.81;48.04;95219.75;5089701;28;20211;-76
2021/12/21 10:25:48;;;;;;;8.10;5.40;;;;;;;4.42;52.78;95197.59;5089424;28;20697;-75
2021/12/21 10:28:32;;;;;;;9.97;5.80;;;;;;;4.90;51.27;95203.50;5090019;28;20200;-77
2021/12/21 10:31:04;;;;;;;12.87;6.70;;;;;;;4.80;52.76;95203.69;5089264;28;20642;-77
2021/12/21 10:33:33;;;;;;;12.50;6.90;;;;;;;4.63;52.06;95202.16;5083483;28;20610;-75
2021/12/21 10:36:02;;;;;;;12.33;6.00;;;;;;;5.05;52.24;95222.41;5089562;28;20281;-75
2021/12/21 10:38:31;;;;;;;6.17;4.10;;;;;;;5.74;50.35;95216.28;5089103;28;20568;-74
2021/12/21 10:41:06;;;;;;;7.07;4.40;;;;;;;6.27;48.72;95220.44;5089602;28;20204;-75
2021/12/21 10:43:34;;;;;;;6.13;4.63;;;;;;;7.20;46.44;95218.84;5090617;28;20204;-76
2021/12/21 10:46:05;;;;;;;8.60;5.60;;;;;;;8.02;43.80;95226.94;5089046;28;20206;-76
2021/12/21 10:48:36;;;;;;;6.13;3.67;;;;;;;6.85;44.76;95220.44;5088593;28;20217;-76
2021/12/21 10:51:11;;;;;;;8.23;5.17;;;;;;;6.29;46.76;95223.69;5089841;28;20196;-76
2021/12/21 10:53:46;;;;;;;11.53;7.30;;;;;;;6.60;46.12;95229.47;5089206;28;20298;-76
2021/12/21 10:56:15;;;;;;;10.20;4.30;;;;;;;5.98;45.39;95223.81;5082334;28;20229;-75
2021/12/21 10:58:45;;;;;;;9.27;5.30;;;;;;;5.19;48.06;95229.41;5088720;28;20262;-76
2021/12/21 11:01:19;;;;;;;10.37;5.87;;;;;;;4.76;48.65;95217.84;5089365;28;20265;-75
2021/12/21 11:03:51;;;;;;;6.53;4.17;;;;;;;4.66;48.98;95226.75;5089757;28;20203;-75
2021/12/21 11:06:25;;;;;;;7.20;4.30;;;;;;;3.51;51.60;95216.06;5089031;28;20656;-75
2021/12/21 11:08:55;;;;;;;7.27;4.17;;;;;;;2.42;56.14;95224.84;5083529;28;20284;-74
2021/12/21 11:11:29;;;;;;;9.07;5.37;;;;;;;2.17;57.31;95204.19;5088591;28;20208;-75
2021/12/21 11:14:08;;;;;;;6.77;4.80;;;;;;;2.30;57.29;95216.59;5088521;28;20276;-75
2021/12/21 11:16:45;;;;;;;14.27;5.73;;;;;;;3.13;55.44;95213.16;5089214;28;20216;-75
2021/12/21 11:19:15;;;;;;;9.60;5.30;;;;;;;3.91;51.82;95221.19;5089560;28;20200;-75
2021/12/21 11:21:44;;;;;;;14.67;5.10;;;;;;;3.27;52.63;95225.38;5088737;28;20205;-75
2021/12/21 11:24:13;;;;;;;7.73;5.17;;;;;;;4.17;51.48;95226.94;5091453;28;20200;-74
2021/12/21 11:26:42;;;;;;;7.27;4.30;;;;;;;4.20;49.39;95211.16;5093253;28;20324;-76
2021/12/21 11:29:12;;;;;;;12.50;6.57;;;;;;;3.67;49.11;95216.88;5093427;28;20313;-76
2021/12/21 11:31:44;;;;;;;11.93;6.33;;;;;;;3.99;47.31;95203.16;5093227;28;20280;-76
2021/12/21 11:34:15;;;;;;;14.97;8.70;;;;;;;5.27;45.64;95200.19;5096388;28;20196;-75
2021/12/21 11:39:32;;;;;;;7.53;4.73;;;;;;;6.54;40.96;95200.97;5092316;28;20204;-75
2021/12/21 11:42:00;;;;;;;5.07;3.50;;;;;;;6.74;40.01;95200.22;5092684;28;20200;-75
2021/12/21 11:44:38;;;;;;;10.63;5.83;;;;;;;7.41;38.76;95198.19;5092310;28;20211;-75
2021/12/21 11:47:13;;;;;;;7.20;4.43;;;;;;;6.76;39.80;95200.84;5091826;28;20220;-76
2021/12/21 11:49:47;;;;;;;15.27;7.67;;;;;;;7.70;38.58;95204.19;5091154;28;20677;-74
2021/12/21 11:52:17;;;;;;;15.30;6.50;;;;;;;8.26;37.11;95202.41;5092471;28;20207;-75
2021/12/21 11:54:47;;;;;;;13.47;5.43;;;;;;;7.48;37.80;95190.47;5093009;28;20292;-76
2021/12/21 11:57:15;;;;;;;10.17;5.00;;;;;;;6.49;39.80;95195.53;5086366;28;20658;-76
2021/12/21 11:59:42;;;;;;;18.50;7.03;;;;;;;6.73;39.92;95198.63;5092799;28;20286;-74
2021/12/21 12:02:10;;;;;;;26.17;8.80;;;;;;;6.46;41.47;95198.47;5093104;28;20204;-74
2021/12/21 12:04:38;;;;;;;12.87;4.80;;;;;;;6.21;41.04;95193.59;5086248;28;20217;-76
2021/12/21 12:07:17;;;;;;;7.43;4.40;;;;;;;4.95;44.19;95189.13;5093205;28;20211;-78
2021/12/21 12:09:44;;;;;;;9.63;4.53;;;;;;;4.64;45.65;95208.13;5093150;28;20196;-77
2021/12/21 12:12:14;;;;;;;9.63;4.37;;;;;;;3.95;47.03;95200.13;5091532;28;20207;-75
2021/12/21 12:14:42;;;;;;;9.10;3.80;;;;;;;3.96;46.80;95208.63;5092179;28;20197;-74
2021/12/21 12:17:16;;;;;;;17.07;5.30;;;;;;;4.09;45.19;95208.94;5092223;28;20220;-75
2021/12/21 12:19:51;;;;;;;8.30;4.80;;;;;;;4.44;45.03;95216.22;5093113;28;20199;-74
2021/12/21 12:22:18;;;;;;;10.03;6.17;;;;;;;5.02;43.61;95223.50;5092148;28;20231;-75
2021/12/21 12:24:48;;;;;;;10.70;6.37;;;;;;;5.74;40.96;95224.78;5093674;28;20248;-74
2021/12/21 12:27:21;;;;;;;9.63;5.00;;;;;;;5.70;40.85;95228.69;5091498;28;20220;-74